Time;durP1;ratioP1;P1;durP2;ratioP2;P2;SDS_P1;SDS_P2;PMS_P1;PMS_P2;Temp;Humidity;BMP_temperature;BMP_pressure;BME280_temperature;BME280_humidity;BME280_pressure;Samples;Min_cycle;Max_cycle;Signal;HPM_P1;HPM_P2
2023/10/28 00:01:40;;;;;;;3.70;1.40;;;10.60;99.90;;;;;;5028228;28;20087;-64
2023/10/28 00:04:07;;;;;;;3.35;0.80;;;10.60;99.90;;;;;;5027259;28;20099;-64
2023/10/28 00:06:34;;;;;;;2.22;0.80;;;10.60;99.90;;;;;;5023410;28;20464;-64
2023/10/28 00:09:01;;;;;;;5.35;1.15;;;10.60;99.90;;;;;;5017752;28;20072;-65
2023/10/28 00:11:29;;;;;;;4.60;0.90;;;10.60;99.90;;;;;;5007097;28;20099;-64
2023/10/28 00:13:56;;;;;;;4.30;0.85;;;10.60;99.90;;;;;;5025010;28;20341;-64
2023/10/28 00:16:23;;;;;;;4.85;0.90;;;10.70;99.90;;;;;;5024797;28;20145;-64
2023/10/28 00:18:49;;;;;;;5.30;1.20;;;10.70;99.90;;;;;;5025732;28;20049;-65
2023/10/28 00:21:18;;;;;;;3.38;1.00;;;10.70;99.90;;;;;;5027689;28;20048;-66
2023/10/28 00:23:45;;;;;;;1.48;0.70;;;10.70;99.90;;;;;;5021044;28;20608;-64
2023/10/28 00:26:11;;;;;;;5.43;0.90;;;10.70;99.90;;;;;;5010328;28;20100;-64
2023/10/28 00:28:39;;;;;;;5.50;1.13;;;10.70;99.90;;;;;;5024510;28;20128;-64
2023/10/28 00:31:06;;;;;;;3.25;1.08;;;10.70;99.90;;;;;;5028154;28;20045;-64
2023/10/28 00:33:36;;;;;;;2.65;1.00;;;10.60;99.90;;;;;;5027727;28;20064;-65
2023/10/28 00:36:11;;;;;;;3.63;0.93;;;10.60;99.90;;;;;;5028203;28;20041;-65
2023/10/28 00:38:38;;;;;;;5.35;0.80;;;10.60;99.90;;;;;;5027632;28;20294;-65
2023/10/28 00:41:04;;;;;;;6.65;1.40;;;10.50;99.90;;;;;;5027941;28;20049;-65
2023/10/28 00:43:32;;;;;;;2.15;1.02;;;10.50;99.90;;;;;;5026720;28;20053;-64
2023/10/28 00:45:59;;;;;;;4.00;1.20;;;10.50;99.90;;;;;;5008316;28;20081;-65
2023/10/28 00:48:28;;;;;;;4.93;1.83;;;10.50;99.90;;;;;;5022252;28;20053;-64
2023/10/28 00:50:57;;;;;;;3.05;0.90;;;10.50;99.90;;;;;;5027952;28;20045;-64
2023/10/28 00:53:25;;;;;;;7.60;1.52;;;10.50;99.90;;;;;;5027200;28;20050;-64
2023/10/28 00:55:53;;;;;;;1.67;0.98;;;10.50;99.90;;;;;;5010101;28;20050;-65
2023/10/28 00:58:21;;;;;;;3.45;1.33;;;10.40;99.90;;;;;;5009257;28;20045;-65
2023/10/28 01:00:48;;;;;;;1.60;0.82;;;10.40;99.90;;;;;;5012720;28;20103;-64
2023/10/28 01:03:16;;;;;;;2.70;1.20;;;10.30;99.90;;;;;;5027607;28;20045;-63
2023/10/28 01:05:43;;;;;;;3.85;0.80;;;10.30;99.90;;;;;;5027494;28;20053;-64
2023/10/28 01:08:10;;;;;;;5.00;1.23;;;10.30;99.90;;;;;;5009955;28;20049;-63
2023/10/28 01:10:39;;;;;;;7.72;2.38;;;10.30;99.90;;;;;;5027968;28;20041;-63
2023/10/28 01:13:08;;;;;;;1.88;0.88;;;10.20;99.90;;;;;;5009423;28;20412;-64
2023/10/28 01:15:35;;;;;;;2.25;1.10;;;10.20;99.90;;;;;;5027669;28;20479;-63
2023/10/28 01:18:02;;;;;;;4.30;1.15;;;10.20;99.90;;;;;;5027697;28;20290;-63
2023/10/28 01:20:29;;;;;;;3.25;1.00;;;10.20;99.90;;;;;;5027824;28;20042;-63
2023/10/28 01:22:58;;;;;;;9.52;1.10;;;10.20;99.90;;;;;;4663553;28;10000232;-63
2023/10/28 01:25:25;;;;;;;3.22;1.02;;;10.20;99.90;;;;;;5011976;28;20049;-63
2023/10/28 01:27:53;;;;;;;3.03;1.25;;;10.20;99.90;;;;;;5034200;28;20295;-64
2023/10/28 01:30:20;;;;;;;5.38;0.80;;;10.20;99.90;;;;;;5026058;28;20350;-64
2023/10/28 01:32:47;;;;;;;3.40;0.93;;;10.20;99.90;;;;;;5028249;28;20140;-64
2023/10/28 01:35:14;;;;;;;1.38;1.27;;;10.20;99.90;;;;;;5027118;28;20515;-65
2023/10/28 01:37:41;;;;;;;6.55;0.75;;;10.20;99.90;;;;;;5009751;28;20057;-64
2023/10/28 01:40:14;;;;;;;4.35;0.93;;;10.20;99.90;;;;;;5031136;28;20064;-65
2023/10/28 01:42:42;;;;;;;4.03;0.80;;;10.20;99.90;;;;;;5035409;28;20438;-64
2023/10/28 01:45:09;;;;;;;6.78;1.05;;;10.20;99.90;;;;;;5030545;28;20053;-64
2023/10/28 01:47:41;;;;;;;5.07;0.82;;;10.20;99.90;;;;;;5013821;28;20045;-65
2023/10/28 01:50:11;;;;;;;6.82;0.93;;;10.20;99.90;;;;;;5031009;28;20045;-64
2023/10/28 01:52:39;;;;;;;4.90;0.85;;;10.30;99.90;;;;;;5032052;28;20049;-64
2023/10/28 01:55:07;;;;;;;5.80;0.80;;;10.40;99.90;;;;;;5034665;28;20488;-64
2023/10/28 01:57:34;;;;;;;8.50;1.02;;;10.30;99.90;;;;;;5038282;28;20038;-63
2023/10/28 02:00:06;;;;;;;4.93;0.77;;;10.30;99.90;;;;;;5018907;28;20050;-62
2023/10/28 02:02:36;;;;;;;5.32;2.40;;;10.30;99.90;;;;;;5031838;28;20052;-63
2023/10/28 02:05:03;;;;;;;7.03;0.90;;;10.30;99.90;;;;;;5030279;28;20037;-63
2023/10/28 02:07:30;;;;;;;2.35;0.60;;;10.30;99.90;;;;;;5030969;28;20046;-64
2023/10/28 02:09:57;;;;;;;2.35;0.73;;;10.30;99.90;;;;;;5013368;28;20111;-64
2023/10/28 02:12:24;;;;;;;10.13;1.33;;;10.30;99.90;;;;;;5029497;28;20096;-65
2023/10/28 02:14:51;;;;;;;5.97;0.93;;;10.30;99.90;;;;;;5029885;28;20049;-64
2023/10/28 02:17:18;;;;;;;3.65;0.80;;;10.30;99.90;;;;;;5030832;28;20067;-64
2023/10/28 02:19:46;;;;;;;6.18;0.88;;;10.40;99.90;;;;;;5029104;28;20045;-65
2023/10/28 02:22:14;;;;;;;5.25;0.95;;;10.40;99.90;;;;;;5030333;28;20414;-64
2023/10/28 02:24:41;;;;;;;3.03;0.73;;;10.40;99.90;;;;;;5030059;28;20209;-63
2023/10/28 02:27:10;;;;;;;4.97;1.48;;;10.40;99.90;;;;;;5031040;28;20552;-63
2023/10/28 02:29:39;;;;;;;3.97;0.90;;;10.50;99.90;;;;;;5030176;28;20054;-63
2023/10/28 02:32:07;;;;;;;4.70;1.20;;;10.40;99.90;;;;;;5030964;28;20041;-63
2023/10/28 02:34:34;;;;;;;6.50;0.80;;;10.30;99.90;;;;;;5030203;28;20041;-64
2023/10/28 02:37:01;;;;;;;7.90;1.15;;;10.30;99.90;;;;;;5010136;28;20405;-63
2023/10/28 02:39:29;;;;;;;4.30;0.77;;;10.30;99.90;;;;;;5034976;28;20045;-65
2023/10/28 02:41:56;;;;;;;4.35;0.73;;;10.20;99.90;;;;;;5036310;28;20049;-64
2023/10/28 02:44:23;;;;;;;2.88;0.80;;;10.20;99.90;;;;;;5038085;28;20041;-64
2023/10/28 02:46:50;;;;;;;1.35;0.60;;;10.10;99.90;;;;;;5035895;28;20436;-64
2023/10/28 02:49:16;;;;;;;3.42;0.85;;;10.10;99.90;;;;;;5031403;28;20596;-64
2023/10/28 02:51:43;;;;;;;3.38;0.65;;;10.10;99.90;;;;;;5012235;28;20041;-64
2023/10/28 02:54:10;;;;;;;2.90;0.88;;;10.10;99.90;;;;;;5030839;28;20049;-64
2023/10/28 02:56:38;;;;;;;3.22;0.75;;;10.10;99.90;;;;;;5035050;28;20488;-64
2023/10/28 02:59:06;;;;;;;3.00;0.60;;;10.10;99.90;;;;;;5030761;28;20054;-64
2023/10/28 03:01:39;;;;;;;8.13;1.42;;;10.10;99.90;;;;;;5029394;28;20049;-65
2023/10/28 03:04:07;;;;;;;4.32;0.60;;;10.10;99.90;;;;;;5029843;28;20088;-66
2023/10/28 03:06:34;;;;;;;2.78;1.48;;;10.10;99.90;;;;;;5029078;28;20045;-65
2023/10/28 03:09:00;;;;;;;7.25;0.70;;;10.10;99.90;;;;;;5025446;28;20099;-64
2023/10/28 03:11:27;;;;;;;5.03;0.60;;;10.20;99.90;;;;;;5028633;28;20041;-65
2023/10/28 03:13:54;;;;;;;2.95;0.60;;;10.20;99.90;;;;;;5029513;28;20061;-65
2023/10/28 03:16:21;;;;;;;2.95;0.85;;;10.20;99.90;;;;;;5011679;28;20049;-63
2023/10/28 03:18:48;;;;;;;3.38;0.75;;;10.20;99.90;;;;;;5028960;28;20049;-64
2023/10/28 03:21:15;;;;;;;1.42;0.60;;;10.20;99.90;;;;;;5029223;28;20053;-64
2023/10/28 03:23:42;;;;;;;5.47;1.00;;;10.30;99.90;;;;;;5028624;28;20060;-64
2023/10/28 03:26:09;;;;;;;2.05;0.55;;;10.30;99.90;;;;;;5028901;28;20041;-67
2023/10/28 03:28:36;;;;;;;3.20;1.00;;;10.30;99.90;;;;;;5029206;28;20068;-63
2023/10/28 03:31:09;;;;;;;1.17;0.47;;;10.30;99.90;;;;;;5029393;28;20122;-63
2023/10/28 03:33:39;;;;;;;1.65;0.80;;;10.30;99.90;;;;;;5010843;28;20122;-63
2023/10/28 03:36:10;;;;;;;2.58;0.55;;;10.30;99.90;;;;;;5010227;28;20049;-63
2023/10/28 03:38:38;;;;;;;1.27;0.90;;;10.30;99.90;;;;;;5025783;28;20057;-64
2023/10/28 03:41:06;;;;;;;0.90;0.45;;;10.30;99.90;;;;;;5028893;28;20405;-64
2023/10/28 03:43:33;;;;;;;3.00;0.60;;;10.30;99.90;;;;;;5028613;28;20041;-65
2023/10/28 03:46:00;;;;;;;3.63;0.80;;;10.30;99.90;;;;;;5028920;28;20055;-65
2023/10/28 03:48:27;;;;;;;2.05;0.50;;;10.30;99.90;;;;;;5028877;28;20048;-64
2023/10/28 03:50:57;;;;;;;1.05;0.40;;;10.30;99.90;;;;;;5021554;28;20343;-64
2023/10/28 03:53:24;;;;;;;3.95;0.50;;;10.30;99.90;;;;;;5026976;28;20542;-65
2023/10/28 03:55:51;;;;;;;3.50;0.70;;;10.30;99.90;;;;;;5028203;28;20053;-64
2023/10/28 03:58:18;;;;;;;1.55;0.50;;;10.30;99.90;;;;;;5028750;28;20057;-65
2023/10/28 04:00:45;;;;;;;6.75;0.73;;;10.30;99.90;;;;;;5029083;28;20037;-64
2023/10/28 04:03:12;;;;;;;3.38;0.60;;;10.30;99.90;;;;;;5011213;28;20049;-65
2023/10/28 04:05:39;;;;;;;3.03;1.63;;;10.30;99.90;;;;;;5025725;28;20041;-64
2023/10/28 04:08:06;;;;;;;0.80;0.35;;;10.30;99.90;;;;;;5027563;28;20132;-66
2023/10/28 04:10:33;;;;;;;0.32;0.22;;;10.30;99.90;;;;;;5028253;28;20040;-64
2023/10/28 04:13:00;;;;;;;2.30;0.40;;;10.30;99.90;;;;;;5028579;28;20049;-64
2023/10/28 04:15:27;;;;;;;1.05;0.43;;;10.30;99.90;;;;;;5010479;28;20058;-64
2023/10/28 04:17:54;;;;;;;1.95;0.73;;;10.30;99.90;;;;;;5030175;28;20045;-65
2023/10/28 04:20:20;;;;;;;4.13;0.65;;;10.30;99.90;;;;;;5027602;28;20120;-65
2023/10/28 04:22:47;;;;;;;2.63;0.68;;;10.30;99.90;;;;;;5028575;28;20111;-64
2023/10/28 04:25:14;;;;;;;3.95;0.77;;;10.30;99.90;;;;;;5009434;28;20045;-65
2023/10/28 04:27:41;;;;;;;2.47;0.47;;;10.40;99.90;;;;;;5032431;28;20081;-65
2023/10/28 04:30:10;;;;;;;1.15;0.40;;;10.40;99.90;;;;;;5034973;28;20052;-64
2023/10/28 04:32:40;;;;;;;3.08;0.75;;;10.50;99.90;;;;;;5033611;28;20085;-65
2023/10/28 04:35:10;;;;;;;3.65;0.68;;;10.50;99.90;;;;;;5015449;28;20053;-64
2023/10/28 04:37:53;;;;;;;2.22;0.70;;;10.50;99.90;;;;;;5014307;28;20046;-65
2023/10/28 04:40:20;;;;;;;4.85;1.23;;;10.60;99.90;;;;;;5025473;28;20689;-64
2023/10/28 04:42:47;;;;;;;2.15;0.50;;;10.60;99.90;;;;;;5028170;28;20046;-64
2023/10/28 04:45:14;;;;;;;1.75;0.50;;;10.60;99.90;;;;;;5027546;28;20057;-65
2023/10/28 04:47:40;;;;;;;4.15;0.65;;;10.60;99.90;;;;;;5027824;28;20103;-63
2023/10/28 04:50:08;;;;;;;3.60;1.00;;;10.60;99.90;;;;;;5027413;28;20077;-63
2023/10/28 04:52:35;;;;;;;2.80;0.70;;;10.60;99.90;;;;;;5027765;28;20111;-65
2023/10/28 04:55:02;;;;;;;2.17;0.60;;;10.60;99.90;;;;;;5026264;28;20045;-64
2023/10/28 04:57:29;;;;;;;4.05;0.63;;;10.60;99.90;;;;;;5011037;28;20492;-64
2023/10/28 04:59:56;;;;;;;4.68;0.70;;;10.60;99.90;;;;;;5027912;28;20366;-65
2023/10/28 05:02:22;;;;;;;2.83;0.47;;;10.60;99.90;;;;;;5009774;28;20511;-64
2023/10/28 05:04:49;;;;;;;4.65;0.63;;;10.60;99.90;;;;;;5027916;28;20065;-64
2023/10/28 05:07:16;;;;;;;1.60;0.50;;;10.60;99.90;;;;;;5027052;28;20056;-64
2023/10/28 05:09:43;;;;;;;3.33;1.10;;;10.60;99.90;;;;;;5035870;28;20056;-65
2023/10/28 05:12:10;;;;;;;1.52;0.40;;;10.60;99.90;;;;;;5027402;28;20088;-64
2023/10/28 05:14:37;;;;;;;2.05;0.50;;;10.60;99.90;;;;;;5031447;28;20576;-65
2023/10/28 05:17:05;;;;;;;7.15;0.77;;;10.60;99.90;;;;;;5031553;28;20056;-64
2023/10/28 05:19:32;;;;;;;1.88;0.52;;;10.60;99.90;;;;;;5031706;28;20052;-64
2023/10/28 05:22:01;;;;;;;1.30;0.47;;;10.60;99.90;;;;;;5013754;28;20353;-65
2023/10/28 05:24:29;;;;;;;2.15;0.47;;;10.50;99.90;;;;;;5031565;28;20132;-64
2023/10/28 05:26:57;;;;;;;3.28;0.70;;;10.50;99.90;;;;;;5026886;28;20128;-65
2023/10/28 05:29:24;;;;;;;1.70;0.75;;;10.50;99.90;;;;;;5014282;28;20049;-64
2023/10/28 05:31:56;;;;;;;3.08;0.70;;;10.50;99.90;;;;;;5013464;28;20053;-64
2023/10/28 05:34:23;;;;;;;2.45;0.50;;;10.50;99.90;;;;;;5031542;28;20405;-64
2023/10/28 05:36:50;;;;;;;3.03;0.60;;;10.50;99.90;;;;;;5031170;28;20033;-64
2023/10/28 05:39:17;;;;;;;4.13;0.75;;;10.50;99.90;;;;;;5030359;28;20134;-64
2023/10/28 05:41:44;;;;;;;7.80;1.05;;;10.50;99.90;;;;;;5030634;28;20666;-64
2023/10/28 05:44:11;;;;;;;3.60;0.50;;;10.50;99.90;;;;;;5030969;28;20052;-64
2023/10/28 05:46:38;;;;;;;7.07;1.02;;;10.50;99.90;;;;;;5013876;28;20058;-64
2023/10/28 05:49:04;;;;;;;2.58;0.50;;;10.50;99.90;;;;;;5030297;28;20049;-64
2023/10/28 05:51:35;;;;;;;3.13;0.80;;;10.50;99.90;;;;;;5031065;28;20053;-65
2023/10/28 05:54:03;;;;;;;5.70;0.50;;;10.50;99.90;;;;;;5030363;28;20041;-64
2023/10/28 05:56:30;;;;;;;3.95;1.05;;;10.60;99.90;;;;;;5031408;28;20045;-65
2023/10/28 05:58:58;;;;;;;4.00;0.82;;;10.60;99.90;;;;;;5029293;28;20041;-65
2023/10/28 06:01:25;;;;;;;1.63;0.50;;;10.60;99.90;;;;;;5031889;28;20048;-65
2023/10/28 06:03:52;;;;;;;4.82;0.60;;;10.60;99.90;;;;;;5037184;28;20122;-64
2023/10/28 06:06:19;;;;;;;3.63;0.68;;;10.60;99.90;;;;;;5030779;28;20057;-64
2023/10/28 06:08:46;;;;;;;4.18;0.80;;;10.60;99.90;;;;;;5012684;28;20048;-64
2023/10/28 06:11:12;;;;;;;5.93;0.73;;;10.60;99.90;;;;;;5027398;28;20153;-65
2023/10/28 06:13:39;;;;;;;4.10;0.80;;;10.60;99.90;;;;;;5030666;28;20168;-64
2023/10/28 06:16:06;;;;;;;5.40;2.05;;;10.60;99.90;;;;;;5031401;28;20057;-64
2023/10/28 06:18:33;;;;;;;6.15;0.60;;;10.60;99.90;;;;;;5031388;28;20045;-64
2023/10/28 06:21:00;;;;;;;1.65;0.60;;;10.60;99.90;;;;;;5030769;28;20045;-64
2023/10/28 06:23:27;;;;;;;1.83;0.60;;;10.60;99.90;;;;;;5030727;28;20053;-64
2023/10/28 06:25:54;;;;;;;5.57;0.63;;;10.50;99.90;;;;;;5026809;28;20386;-65
2023/10/28 06:28:22;;;;;;;4.22;0.80;;;10.50;99.90;;;;;;5030326;28;20061;-65
2023/10/28 06:30:49;;;;;;;3.42;0.68;;;10.50;99.90;;;;;;4673003;28;10000307;-65
2023/10/28 06:33:16;;;;;;;2.22;0.50;;;10.40;99.90;;;;;;5026832;28;20140;-66
2023/10/28 06:35:44;;;;;;;6.00;2.00;;;10.40;99.90;;;;;;5026432;28;20107;-64
2023/10/28 06:38:11;;;;;;;2.97;0.65;;;10.40;99.90;;;;;;5033245;28;20477;-64
2023/10/28 06:40:37;;;;;;;5.20;0.80;;;10.40;99.90;;;;;;5028584;28;20073;-64
2023/10/28 06:43:04;;;;;;;1.23;0.80;;;10.30;99.90;;;;;;5028289;28;20045;-65
2023/10/28 06:45:31;;;;;;;2.67;0.60;;;10.30;99.90;;;;;;5032591;28;20106;-64
2023/10/28 06:47:58;;;;;;;4.05;0.60;;;10.30;99.90;;;;;;5027251;28;20046;-64
2023/10/28 06:50:25;;;;;;;7.40;0.63;;;10.30;99.90;;;;;;5010448;28;20119;-64
2023/10/28 06:52:52;;;;;;;4.18;0.70;;;10.30;99.90;;;;;;5034238;28;20087;-63
2023/10/28 06:55:19;;;;;;;2.25;0.43;;;10.20;99.90;;;;;;5030775;28;20088;-63
2023/10/28 06:57:45;;;;;;;7.13;1.42;;;10.30;99.90;;;;;;5029520;28;20037;-63
2023/10/28 07:00:16;;;;;;;3.58;0.98;;;10.20;99.90;;;;;;5035529;28;20045;-63
2023/10/28 07:02:43;;;;;;;1.55;0.70;;;10.20;99.90;;;;;;5033073;28;20050;-63
2023/10/28 07:05:10;;;;;;;10.73;1.20;;;10.20;99.90;;;;;;5021911;28;20525;-64
2023/10/28 07:07:38;;;;;;;3.25;0.70;;;10.20;99.90;;;;;;5029834;28;20059;-64
2023/10/28 07:10:05;;;;;;;5.30;1.20;;;10.30;99.90;;;;;;5025406;28;20470;-64
2023/10/28 07:12:32;;;;;;;2.50;0.85;;;10.30;99.90;;;;;;5021264;28;20092;-65
2023/10/28 07:14:59;;;;;;;1.42;0.70;;;10.40;99.90;;;;;;5013712;28;20068;-64
2023/10/28 07:17:26;;;;;;;7.97;1.30;;;10.30;99.90;;;;;;5025442;28;20501;-64
2023/10/28 07:19:53;;;;;;;3.97;0.93;;;10.40;99.90;;;;;;5023458;28;20115;-63
2023/10/28 07:22:20;;;;;;;5.13;0.90;;;10.40;99.90;;;;;;5023178;28;20144;-62
2023/10/28 07:24:47;;;;;;;6.72;1.10;;;10.40;99.90;;;;;;5025743;28;20649;-64
2023/10/28 07:27:15;;;;;;;4.28;0.70;;;10.50;99.90;;;;;;5023487;28;20060;-64
2023/10/28 07:29:42;;;;;;;8.57;1.90;;;10.50;99.90;;;;;;5017332;28;20112;-64
2023/10/28 07:32:09;;;;;;;3.47;1.38;;;10.50;99.90;;;;;;5019387;28;20041;-64
2023/10/28 07:34:36;;;;;;;7.63;1.70;;;10.50;99.90;;;;;;5025056;28;20133;-63
2023/10/28 07:37:05;;;;;;;4.97;0.90;;;10.60;99.90;;;;;;5021584;28;20041;-64
2023/10/28 07:39:32;;;;;;;5.50;1.33;;;10.60;99.90;;;;;;5022777;28;20049;-64
2023/10/28 07:41:59;;;;;;;5.65;1.20;;;10.70;99.90;;;;;;5023519;28;20049;-64
2023/10/28 07:44:26;;;;;;;2.80;0.90;;;10.70;99.90;;;;;;5036992;28;20053;-64
2023/10/28 07:46:53;;;;;;;8.35;1.75;;;10.70;99.90;;;;;;5030422;28;20049;-65
2023/10/28 07:49:20;;;;;;;7.80;1.50;;;10.80;99.90;;;;;;5009243;28;20051;-65
2023/10/28 07:51:47;;;;;;;5.72;1.10;;;10.80;99.90;;;;;;5008199;28;20049;-64
2023/10/28 07:54:14;;;;;;;6.15;1.23;;;10.90;99.90;;;;;;5022596;28;20045;-64
2023/10/28 07:56:42;;;;;;;7.18;1.27;;;10.90;99.90;;;;;;5007155;28;20417;-65
2023/10/28 07:59:09;;;;;;;6.45;1.58;;;11.00;99.90;;;;;;5026508;28;20053;-65
2023/10/28 08:01:39;;;;;;;2.90;0.77;;;11.00;99.90;;;;;;5013720;28;20507;-65
2023/10/28 08:04:06;;;;;;;6.88;1.42;;;11.00;99.90;;;;;;5024381;28;20053;-66
2023/10/28 08:06:34;;;;;;;7.00;1.10;;;11.00;99.90;;;;;;5032754;28;20103;-66
2023/10/28 08:09:04;;;;;;;10.85;1.40;;;11.00;99.90;;;;;;5024067;28;20079;-66
2023/10/28 08:11:32;;;;;;;4.20;1.00;;;11.00;99.90;;;;;;5006236;28;20177;-66
2023/10/28 08:13:59;;;;;;;3.80;0.93;;;11.00;99.90;;;;;;5035377;28;20056;-65
2023/10/28 08:16:26;;;;;;;6.18;1.67;;;11.10;99.90;;;;;;5034100;28;20562;-65
2023/10/28 08:18:54;;;;;;;5.00;0.95;;;11.10;99.90;;;;;;5024559;28;20077;-76
2023/10/28 08:21:21;;;;;;;8.63;1.73;;;11.10;99.90;;;;;;5027693;28;20045;-66
2023/10/28 08:23:49;;;;;;;3.60;0.80;;;11.10;99.90;;;;;;5027004;28;20500;-66
2023/10/28 08:26:18;;;;;;;7.13;1.00;;;11.20;99.90;;;;;;5042602;28;20049;-66
2023/10/28 08:28:46;;;;;;;10.05;1.10;;;11.20;99.90;;;;;;5030137;28;20057;-67
2023/10/28 08:31:13;;;;;;;11.30;1.85;;;11.10;99.90;;;;;;5018253;28;20060;-67
2023/10/28 08:33:43;;;;;;;13.75;1.65;;;11.10;99.90;;;;;;5025985;28;20048;-65
2023/10/28 08:36:10;;;;;;;7.50;1.52;;;11.10;99.90;;;;;;5025368;28;20570;-66
2023/10/28 08:38:38;;;;;;;3.63;0.85;;;11.20;99.90;;;;;;5020747;28;20151;-66
2023/10/28 08:41:05;;;;;;;3.67;1.08;;;11.20;99.90;;;;;;5021754;28;20057;-67
2023/10/28 08:43:34;;;;;;;9.18;1.65;;;11.10;99.90;;;;;;5028553;28;20037;-67
2023/10/28 08:46:03;;;;;;;11.43;1.42;;;11.20;99.90;;;;;;5025436;28;20056;-68
2023/10/28 08:48:33;;;;;;;9.48;1.17;;;11.20;99.90;;;;;;5009939;28;20546;-67
2023/10/28 08:51:00;;;;;;;6.50;1.02;;;11.20;99.90;;;;;;5020857;28;20064;-67
2023/10/28 08:53:28;;;;;;;10.80;1.30;;;11.20;99.90;;;;;;5008807;28;20132;-66
2023/10/28 08:55:56;;;;;;;9.35;1.55;;;11.20;99.90;;;;;;5005679;28;20460;-66
2023/10/28 08:58:23;;;;;;;11.13;1.92;;;11.20;99.90;;;;;;4995357;28;20042;-68
2023/10/28 09:00:54;;;;;;;7.85;1.30;;;11.20;99.90;;;;;;5004438;28;20052;-66
2023/10/28 09:03:24;;;;;;;9.57;1.17;;;11.20;99.90;;;;;;5016227;28;20049;-65
2023/10/28 09:05:52;;;;;;;7.10;2.67;;;11.20;99.90;;;;;;5003805;28;20057;-67
2023/10/28 09:08:23;;;;;;;5.82;1.13;;;11.30;99.90;;;;;;5000359;28;20041;-68
2023/10/28 09:10:50;;;;;;;9.40;2.08;;;11.30;99.90;;;;;;5025235;28;20050;-68
2023/10/28 09:13:17;;;;;;;7.50;1.52;;;11.20;99.90;;;;;;5007142;28;20128;-66
2023/10/28 09:15:44;;;;;;;13.05;1.60;;;11.30;99.90;;;;;;5021306;28;20114;-68
2023/10/28 09:18:10;;;;;;;8.73;1.73;;;11.30;99.90;;;;;;5031806;28;20046;-68
2023/10/28 09:20:37;;;;;;;11.80;1.55;;;11.30;99.90;;;;;;5026584;28;20111;-69
2023/10/28 09:23:04;;;;;;;8.77;1.77;;;11.40;99.90;;;;;;5023167;28;20069;-68
2023/10/28 09:25:31;;;;;;;4.95;1.40;;;11.40;99.90;;;;;;5019985;28;20056;-68
2023/10/28 09:27:58;;;;;;;7.18;1.20;;;11.40;99.90;;;;;;5035478;28;20052;-68
2023/10/28 09:30:25;;;;;;;6.32;1.98;;;11.40;99.90;;;;;;5032927;28;20111;-67
2023/10/28 09:32:53;;;;;;;10.55;2.13;;;11.50;99.90;;;;;;5014958;28;20068;-68
2023/10/28 09:35:20;;;;;;;11.07;1.80;;;11.50;99.90;;;;;;5012864;28;20510;-67
2023/10/28 09:37:47;;;;;;;14.07;1.73;;;11.50;99.90;;;;;;5017474;28;20049;-66
2023/10/28 09:40:14;;;;;;;16.42;1.98;;;11.50;99.90;;;;;;5030246;28;20053;-66
2023/10/28 09:42:43;;;;;;;10.43;1.42;;;11.50;99.90;;;;;;5028626;28;20049;-67
2023/10/28 09:45:10;;;;;;;13.23;1.95;;;11.60;99.90;;;;;;5024150;28;20050;-66
2023/10/28 09:47:57;;;;;;;10.23;1.98;;;11.50;99.90;;;;;;5024267;28;20057;-66
2023/10/28 09:50:28;;;;;;;14.77;2.05;;;11.50;99.90;;;;;;5018945;28;20107;-66
2023/10/28 09:52:58;;;;;;;10.43;2.38;;;11.60;99.90;;;;;;5023830;28;20252;-66
2023/10/28 09:55:27;;;;;;;13.50;1.98;;;11.60;99.90;;;;;;5008469;28;20132;-67
2023/10/28 09:58:25;;;;;;;11.95;2.13;;;11.70;99.90;;;;;;5019501;28;20080;-66
2023/10/28 10:00:54;;;;;;;13.43;1.70;;;11.80;99.90;;;;;;5010039;28;20084;-66
2023/10/28 10:03:36;;;;;;;15.82;3.58;;;11.90;99.90;;;;;;5015748;28;20049;-67
2023/10/28 10:06:03;;;;;;;12.40;2.40;;;12.00;99.90;;;;;;5035447;28;20071;-67
2023/10/28 10:08:33;;;;;;;14.82;2.45;;;12.20;99.90;;;;;;5041564;28;20504;-66
2023/10/28 10:11:00;;;;;;;13.07;2.22;;;12.30;99.90;;;;;;5038063;28;20045;-67
2023/10/28 10:13:27;;;;;;;14.20;2.47;;;12.40;99.90;;;;;;5044309;28;20068;-67
2023/10/28 10:15:59;;;;;;;8.13;2.10;;;12.50;99.90;;;;;;5040066;28;20060;-68
2023/10/28 10:18:39;;;;;;;15.38;3.72;;;12.50;99.90;;;;;;5028586;28;20061;-66
2023/10/28 10:21:12;;;;;;;14.90;3.13;;;12.70;99.90;;;;;;5035014;28;20049;-66
2023/10/28 10:23:43;;;;;;;10.77;2.08;;;12.70;99.90;;;;;;5011947;28;20140;-67
2023/10/28 10:26:26;;;;;;;17.00;3.50;;;12.80;99.90;;;;;;5015342;28;20068;-67
2023/10/28 10:28:58;;;;;;;11.65;3.05;;;12.90;99.90;;;;;;5008849;28;20112;-66
2023/10/28 10:31:30;;;;;;;14.75;3.13;;;13.00;99.90;;;;;;5014299;28;20050;-67
2023/10/28 10:33:58;;;;;;;15.75;2.70;;;13.10;99.90;;;;;;5027007;28;20179;-66
2023/10/28 10:36:27;;;;;;;13.63;3.28;;;13.20;99.90;;;;;;5026942;28;20076;-68
2023/10/28 10:38:54;;;;;;;18.23;2.88;;;13.20;99.90;;;;;;5028385;28;20495;-68
2023/10/28 10:41:27;;;;;;;15.10;2.83;;;13.30;99.90;;;;;;5037265;28;20049;-68
2023/10/28 10:43:54;;;;;;;13.00;2.50;;;13.40;99.90;;;;;;5011315;28;20057;-65
2023/10/28 10:46:21;;;;;;;19.25;3.70;;;13.50;99.90;;;;;;5009685;28;20050;-67
2023/10/28 10:48:48;;;;;;;24.83;3.75;;;13.60;99.90;;;;;;5009113;28;20234;-67
2023/10/28 10:51:15;;;;;;;15.73;2.88;;;13.60;99.90;;;;;;5024572;28;20060;-66
2023/10/28 10:53:43;;;;;;;20.05;3.55;;;13.70;99.90;;;;;;4992777;28;20045;-67
2023/10/28 10:56:19;;;;;;;18.35;3.17;;;13.70;99.90;;;;;;5031246;28;20077;-67
2023/10/28 10:58:46;;;;;;;14.10;3.17;;;13.80;99.90;;;;;;5040557;28;20056;-67
2023/10/28 11:01:15;;;;;;;19.08;5.03;;;13.90;99.90;;;;;;5033867;28;20555;-67
2023/10/28 11:03:41;;;;;;;19.25;3.55;;;14.00;99.90;;;;;;5020125;28;20138;-65
2023/10/28 11:06:08;;;;;;;22.23;3.53;;;14.10;99.90;;;;;;5010214;28;20547;-66
2023/10/28 11:08:35;;;;;;;22.73;3.80;;;14.10;99.90;;;;;;4988511;28;20045;-67
2023/10/28 11:11:03;;;;;;;18.00;3.05;;;14.20;99.90;;;;;;5022145;28;20081;-67
2023/10/28 11:13:30;;;;;;;13.88;3.05;;;14.30;99.90;;;;;;5024169;28;20496;-67
2023/10/28 11:15:57;;;;;;;22.08;3.30;;;14.20;99.90;;;;;;5010718;28;20057;-66
2023/10/28 11:18:26;;;;;;;21.05;4.25;;;14.30;99.90;;;;;;5035581;28;20061;-66
2023/10/28 11:20:52;;;;;;;25.23;3.70;;;14.30;99.90;;;;;;5033664;28;20540;-66
2023/10/28 11:23:19;;;;;;;31.45;4.80;;;14.30;99.90;;;;;;5037528;28;21085;-66
2023/10/28 11:25:47;;;;;;;21.42;3.22;;;14.30;99.90;;;;;;5028799;28;20578;-67
2023/10/28 11:28:14;;;;;;;24.05;3.33;;;14.30;99.90;;;;;;4991724;28;20453;-67
2023/10/28 11:31:01;;;;;;;19.38;3.38;;;14.30;99.90;;;;;;5013861;28;20049;-67
2023/10/28 11:33:28;;;;;;;26.75;4.38;;;14.40;99.90;;;;;;5030220;28;20145;-67
2023/10/28 11:35:57;;;;;;;21.70;3.92;;;14.40;99.90;;;;;;5009913;28;20084;-68
2023/10/28 11:38:23;;;;;;;22.38;3.90;;;14.30;99.90;;;;;;5031516;28;20055;-66
2023/10/28 11:41:02;;;;;;;21.27;4.10;;;14.20;99.90;;;;;;5026355;28;20492;-68
2023/10/28 11:43:30;;;;;;;20.88;3.28;;;14.20;99.90;;;;;;5017282;28;20052;-67
2023/10/28 11:45:56;;;;;;;21.63;3.97;;;14.10;99.90;;;;;;5011636;28;20049;-67
2023/10/28 11:48:23;;;;;;;16.02;3.05;;;14.10;99.90;;;;;;5018611;28;20061;-66
2023/10/28 11:50:50;;;;;;;23.55;4.97;;;14.00;99.90;;;;;;5024061;28;20053;-68
2023/10/28 11:53:27;;;;;;;21.25;3.50;;;14.00;99.90;;;;;;5025950;28;20523;-66
2023/10/28 11:55:57;;;;;;;15.20;2.40;;;13.90;99.90;;;;;;5035799;28;20048;-66
2023/10/28 11:58:24;;;;;;;16.85;3.53;;;13.80;99.90;;;;;;5009495;28;20045;-66
2023/10/28 12:00:55;;;;;;;25.63;4.30;;;13.80;99.90;;;;;;5026938;28;20109;-67
2023/10/28 12:03:23;;;;;;;11.25;3.15;;;13.70;99.90;;;;;;5022515;28;20063;-67
2023/10/28 12:05:50;;;;;;;11.40;2.40;;;13.60;99.90;;;;;;5041243;28;20156;-67
2023/10/28 12:08:17;;;;;;;16.63;3.17;;;13.60;99.90;;;;;;5015155;28;20408;-66
2023/10/28 12:10:44;;;;;;;19.92;2.65;;;13.60;99.90;;;;;;5029155;28;20048;-66
2023/10/28 12:13:12;;;;;;;11.57;3.30;;;13.60;99.90;;;;;;5009822;28;20500;-66
2023/10/28 12:15:39;;;;;;;14.05;2.25;;;13.70;99.90;;;;;;4999737;28;20568;-67
2023/10/28 12:18:07;;;;;;;16.55;1.98;;;13.60;99.90;;;;;;5014811;28;20090;-68
2023/10/28 12:20:34;;;;;;;16.17;2.42;;;13.70;99.90;;;;;;5010514;28;20076;-67
2023/10/28 12:23:01;;;;;;;15.43;2.75;;;13.70;99.90;;;;;;5012612;28;20050;-68
2023/10/28 12:25:28;;;;;;;17.90;2.67;;;13.70;99.90;;;;;;5009571;28;20050;-67
2023/10/28 12:27:55;;;;;;;11.45;2.53;;;13.70;99.90;;;;;;5006150;28;20096;-66
2023/10/28 12:30:22;;;;;;;15.63;4.25;;;13.70;99.90;;;;;;5005070;28;20077;-66
2023/10/28 12:32:49;;;;;;;8.70;2.60;;;13.80;99.90;;;;;;4996807;28;20131;-67
2023/10/28 12:35:17;;;;;;;13.50;2.30;;;13.70;99.90;;;;;;5018419;28;20049;-67
2023/10/28 12:37:44;;;;;;;18.48;2.95;;;13.70;99.90;;;;;;5011023;28;20148;-65
2023/10/28 12:40:12;;;;;;;15.18;2.67;;;13.70;99.90;;;;;;5004670;28;20052;-66
2023/10/28 12:42:39;;;;;;;9.80;2.78;;;13.70;99.90;;;;;;5011908;28;20053;-66
2023/10/28 12:45:06;;;;;;;17.98;3.10;;;13.70;99.90;;;;;;5005974;28;20053;-67
2023/10/28 12:47:34;;;;;;;17.80;2.75;;;13.80;99.90;;;;;;5005290;28;20472;-67